Time;durP1;ratioP1;P1;durP2;ratioP2;P2;SDS_P1;SDS_P2;PMS_P1;PMS_P2;Temp;Humidity;BMP_temperature;BMP_pressure;BME280_temperature;BME280_humidity;BME280_pressure;Samples;Min_cycle;Max_cycle;Signal;HPM_P1;HPM_P2
2023/03/10 00:01:30;;;;;;;;;32.00;26.50;;;;;5.78;100.00;96799.47;4823416;28;102387;-73
2023/03/10 00:03:59;;;;;;;;;23.00;20.25;;;;;5.71;100.00;96794.16;4823083;29;102053;-73
2023/03/10 00:06:31;;;;;;;;;28.50;21.25;;;;;5.78;100.00;96810.19;4823451;28;102363;-72
2023/03/10 00:08:58;;;;;;;;;29.50;23.50;;;;;5.80;100.00;96805.44;4822109;29;104220;-72
2023/03/10 00:11:26;;;;;;;;;30.00;26.25;;;;;5.79;100.00;96801.13;4824732;29;102023;-72
2023/03/10 00:13:53;;;;;;;;;19.50;18.75;;;;;5.82;100.00;96803.34;4823925;29;102197;-72
2023/03/10 00:16:23;;;;;;;;;27.75;23.75;;;;;5.79;100.00;96795.75;4825131;29;102032;-72
2023/03/10 00:18:51;;;;;;;;;26.25;22.25;;;;;5.74;100.00;96787.53;4822373;29;104038;-72
2023/03/10 00:21:23;;;;;;;;;32.75;25.75;;;;;5.71;100.00;96783.44;4821710;29;102147;-72
2023/03/10 00:23:51;;;;;;;;;32.00;22.75;;;;;5.62;100.00;96767.81;4822814;29;102089;-72
2023/03/10 00:26:20;;;;;;;;;28.25;24.00;;;;;5.60;100.00;96777.91;4823021;29;103525;-72
2023/03/10 00:28:47;;;;;;;;;24.75;24.00;;;;;5.55;100.00;96773.19;4819204;29;104076;-71
2023/03/10 00:31:18;;;;;;;;;28.00;22.75;;;;;5.51;100.00;96771.16;4818725;29;102579;-71
2023/03/10 00:33:45;;;;;;;;;35.75;27.75;;;;;5.46;100.00;96768.28;4818960;29;102190;-72
2023/03/10 00:36:14;;;;;;;;;35.00;27.75;;;;;5.40;100.00;96760.06;4826289;29;102029;-73
2023/03/10 00:38:42;;;;;;;;;28.50;24.25;;;;;5.37;100.00;96757.81;4822858;29;108866;-72
2023/03/10 00:41:11;;;;;;;;;33.75;29.75;;;;;5.30;100.00;96754.34;4820655;29;102378;-73
2023/03/10 00:43:39;;;;;;;;;25.00;23.50;;;;;5.25;100.00;96753.34;4807285;29;101896;-73
2023/03/10 00:46:06;;;;;;;;;31.75;27.00;;;;;5.28;100.00;96760.94;4822094;28;102399;-73
2023/03/10 00:48:34;;;;;;;;;26.50;21.75;;;;;5.25;100.00;96745.31;4823106;29;104040;-73
2023/03/10 00:51:01;;;;;;;;;31.50;25.25;;;;;5.21;100.00;96744.91;4822494;29;102111;-73
2023/03/10 00:53:28;;;;;;;;;32.00;26.25;;;;;5.18;100.00;96745.31;4822717;29;102084;-72
2023/03/10 00:56:05;;;;;;;;;20.00;17.75;;;;;5.13;100.00;96747.00;4830081;29;102416;-72
2023/03/10 00:58:32;;;;;;;;;28.00;21.25;;;;;5.18;100.00;96747.19;4840814;29;103690;-72
2023/03/10 01:01:01;;;;;;;;;24.75;19.25;;;;;5.16;100.00;96755.44;4838911;29;102199;-72
2023/03/10 01:03:28;;;;;;;;;16.50;15.75;;;;;5.12;100.00;96746.19;4840731;29;101971;-72
2023/03/10 01:05:56;;;;;;;;;17.75;15.75;;;;;5.12;100.00;96743.50;4839929;29;102463;-72
2023/03/10 01:08:23;;;;;;;;;17.75;14.50;;;;;5.15;100.00;96740.41;4839888;28;103888;-72
2023/03/10 01:10:50;;;;;;;;;16.00;13.00;;;;;5.19;100.00;96736.25;4839185;29;101941;-71
2023/03/10 01:13:18;;;;;;;;;10.50;10.00;;;;;5.16;100.00;96715.25;4840069;29;101975;-71
2023/03/10 01:15:49;;;;;;;;;17.75;16.75;;;;;5.36;100.00;96742.75;4841829;29;102112;-71
2023/03/10 01:18:18;;;;;;;;;17.75;14.75;;;;;5.54;100.00;96741.25;4835475;28;104144;-71
2023/03/10 01:20:45;;;;;;;;;18.00;17.00;;;;;5.66;100.00;96720.75;4838988;29;101996;-71
2023/03/10 01:23:23;;;;;;;;;22.00;17.00;;;;;5.76;100.00;96710.38;4841890;29;102378;-72
2023/03/10 01:25:50;;;;;;;;;20.50;16.25;;;;;5.96;100.00;96715.63;4841318;29;102168;-71
2023/03/10 01:28:18;;;;;;;;;16.50;14.00;;;;;6.10;100.00;96712.63;4838298;29;104038;-74
2023/03/10 01:30:45;;;;;;;;;20.50;16.75;;;;;6.23;100.00;96704.44;4838411;29;111272;-72
2023/03/10 01:33:13;;;;;;;;;26.00;18.00;;;;;6.36;99.28;96711.56;4839244;29;102458;-72
2023/03/10 01:35:41;;;;;;;;;14.50;14.00;;;;;6.47;97.94;96713.53;4840620;29;102119;-72
2023/03/10 01:38:09;;;;;;;;;23.50;20.25;;;;;6.50;97.18;96706.88;4838254;29;103760;-72
2023/03/10 01:40:36;;;;;;;;;26.25;21.50;;;;;6.60;97.02;96720.63;4841044;29;102196;-72
2023/03/10 01:43:18;;;;;;;;;19.75;16.25;;;;;6.63;95.99;96717.50;4836973;29;102316;-72
2023/03/10 01:45:45;;;;;;;;;21.00;18.75;;;;;6.64;95.81;96711.91;4837677;29;101997;-73
2023/03/10 01:48:14;;;;;;;;;24.75;20.25;;;;;6.63;95.55;96712.13;4844507;29;103732;-72
2023/03/10 01:50:47;;;;;;;;;23.25;17.50;;;;;6.65;95.53;96707.34;4844645;29;102109;-71
2023/03/10 01:53:17;;;;;;;;;16.75;15.75;;;;;6.62;96.54;96705.91;4839078;28;102196;-72
2023/03/10 01:56:01;;;;;;;;;14.25;13.25;;;;;6.52;95.73;96696.75;4822298;29;102063;-72
2023/03/10 01:58:36;;;;;;;;;13.25;12.25;;;;;6.52;95.41;96696.75;4824342;28;108657;-71
2023/03/10 02:01:03;;;;;;;;;15.00;13.00;;;;;6.47;95.55;96697.41;4821115;29;102464;-71
2023/03/10 02:03:40;;;;;;;;;17.00;15.50;;;;;6.41;95.53;96702.84;4819326;29;105303;-72
2023/03/10 02:06:14;;;;;;;;;17.00;12.25;;;;;6.36;95.66;96697.31;4818480;28;102129;-72
2023/03/10 02:09:00;;;;;;;;;10.25;9.25;;;;;6.21;95.57;96689.63;4825745;28;108962;-72
2023/03/10 02:11:43;;;;;;;;;10.00;9.25;;;;;6.22;96.32;96708.16;4822068;29;102261;-72
2023/03/10 02:14:30;;;;;;;;;16.00;11.25;;;;;6.16;96.22;96706.38;4820685;29;101798;-72
2023/03/10 02:17:21;;;;;;;;;8.25;8.00;;;;;6.04;96.39;96689.34;4824489;28;102346;-72
2023/03/10 02:20:47;;;;;;;;;8.00;6.25;;;;;6.05;96.43;96696.34;4819411;28;107120;-72
2023/03/10 02:23:38;;;;;;;;;5.75;5.00;;;;;5.99;96.66;96691.84;4820947;28;102183;-72
2023/03/10 02:26:44;;;;;;;;;10.25;6.75;;;;;5.99;97.19;96709.84;4828427;29;102949;-72
2023/03/10 02:29:21;;;;;;;;;4.00;2.50;;;;;5.90;97.41;96692.38;4823966;28;102086;-72
2023/03/10 02:31:49;;;;;;;;;5.00;2.50;;;;;5.93;97.61;96700.78;4818765;28;108910;-71
2023/03/10 02:34:18;;;;;;;;;0.75;0.50;;;;;5.89;97.58;96696.09;4821225;29;101941;-71
2023/03/10 02:36:45;;;;;;;;;2.00;2.00;;;;;5.87;97.82;96690.94;4824184;29;102473;-71
2023/03/10 02:39:12;;;;;;;;;3.25;2.75;;;;;5.88;97.75;96686.38;4825475;28;102273;-71
2023/03/10 02:41:39;;;;;;;;;2.25;2.25;;;;;5.85;97.82;96683.06;4824688;28;104181;-72
2023/03/10 02:44:11;;;;;;;;;2.00;1.75;;;;;5.86;97.72;96678.50;4823621;29;102118;-72
2023/03/10 02:46:38;;;;;;;;;1.00;1.00;;;;;5.83;97.66;96670.91;4822271;28;102068;-72
2023/03/10 02:49:06;;;;;;;;;1.00;1.00;;;;;5.80;97.81;96674.03;4823626;29;102260;-72
2023/03/10 02:51:36;;;;;;;;;1.50;1.25;;;;;5.80;97.85;96669.50;4822574;28;104270;-72
2023/03/10 02:54:03;;;;;;;;;1.00;1.00;;;;;5.77;98.13;96669.94;4827100;29;102093;-72
2023/03/10 02:56:33;;;;;;;;;1.00;1.00;;;;;5.69;97.88;96650.59;4833847;29;102234;-72
2023/03/10 02:59:01;;;;;;;;;1.75;1.00;;;;;5.67;97.85;96650.03;4842427;29;102195;-72
2023/03/10 03:01:29;;;;;;;;;0.00;0.00;;;;;5.71;98.32;96660.09;4841697;29;104114;-72
2023/03/10 03:03:56;;;;;;;;;1.50;1.50;;;;;5.72;97.97;96655.53;4843441;29;102173;-72
2023/03/10 03:06:24;;;;;;;;;1.25;0.75;;;;;5.71;97.78;96659.25;4842088;29;102217;-72
2023/03/10 03:08:51;;;;;;;;;1.50;1.50;;;;;5.69;97.95;96658.66;4843407;29;103214;-72
2023/03/10 03:11:18;;;;;;;;;2.50;1.00;;;;;5.69;97.95;96661.31;4842111;29;104015;-72
2023/03/10 03:13:45;;;;;;;;;0.25;0.25;;;;;5.70;98.07;96652.25;4844255;29;101892;-72
2023/03/10 03:16:12;;;;;;;;;1.00;0.25;;;;;5.69;98.16;96655.97;4842151;29;102313;-72
2023/03/10 03:18:40;;;;;;;;;0.00;0.00;;;;;5.71;98.22;96653.91;4841507;29;102313;-73
2023/03/10 03:21:11;;;;;;;;;3.50;1.50;;;;;5.71;97.92;96648.53;4838761;28;104033;-72
2023/03/10 03:23:38;;;;;;;;;1.00;0.00;;;;;5.64;97.62;96629.81;4840905;29;102075;-72
2023/03/10 03:26:14;;;;;;;;;0.00;0.00;;;;;5.67;97.50;96636.63;4840952;29;102070;-71
2023/03/10 03:28:41;;;;;;;;;1.00;1.00;;;;;5.61;97.47;96624.06;4843430;29;102099;-72
2023/03/10 03:31:17;;;;;;;;;0.00;0.00;;;;;5.59;97.31;96624.28;4823202;28;104202;-71
2023/03/10 03:33:44;;;;;;;;;0.00;0.00;;;;;5.58;97.08;96637.91;4836644;29;102086;-72
2023/03/10 03:36:12;;;;;;;;;0.75;0.75;;;;;5.57;97.78;96644.31;4843391;29;102326;-72
2023/03/10 03:38:39;;;;;;;;;1.00;1.00;;;;;5.46;98.18;96618.19;4841860;29;102158;-72
2023/03/10 03:41:07;;;;;;;;;0.75;0.75;;;;;5.53;98.20;96630.53;4829487;29;104023;-73
2023/03/10 03:43:34;;;;;;;;;1.00;1.00;;;;;5.45;98.33;96616.56;4841021;29;102174;-72
2023/03/10 03:46:03;;;;;;;;;0.75;0.75;;;;;5.51;97.88;96615.69;4842187;29;102195;-72
2023/03/10 03:48:30;;;;;;;;;0.00;0.00;;;;;5.41;98.24;96600.09;4842989;29;102278;-73
2023/03/10 03:50:57;;;;;;;;;1.00;0.25;;;;;5.52;97.91;96611.97;4842545;29;104076;-73
2023/03/10 03:53:24;;;;;;;;;0.50;0.00;;;;;5.54;97.96;96607.22;4842122;29;102066;-71
2023/03/10 03:55:51;;;;;;;;;1.00;0.00;;;;;5.53;97.60;96613.63;4840751;29;102056;-72
2023/03/10 03:58:18;;;;;;;;;0.00;0.00;;;;;5.52;97.56;96602.06;4843265;29;102460;-72
2023/03/10 04:00:45;;;;;;;;;0.00;0.00;;;;;5.51;97.15;96597.75;4839983;29;104028;-72
2023/03/10 04:03:12;;;;;;;;;1.00;0.00;;;;;5.57;97.02;96599.56;4842372;29;102199;-73
2023/03/10 04:05:39;;;;;;;;;1.00;0.00;;;;;5.52;97.04;96586.00;4840394;29;102000;-73
2023/03/10 04:08:07;;;;;;;;;0.00;0.00;;;;;5.55;96.69;96601.63;4842465;29;102274;-73
2023/03/10 04:10:34;;;;;;;;;0.00;0.00;;;;;5.39;96.69;96565.47;4840223;29;104197;-73
2023/03/10 04:13:01;;;;;;;;;2.00;1.00;;;;;5.40;95.91;96571.66;4840601;29;102900;-73
2023/03/10 04:15:28;;;;;;;;;0.00;0.00;;;;;5.44;96.20;96583.59;4839969;29;102014;-71
2023/03/10 04:17:56;;;;;;;;;0.00;0.00;;;;;5.39;96.21;96576.19;4842447;29;102041;-71
2023/03/10 04:20:25;;;;;;;;;1.75;0.75;;;;;5.36;96.65;96571.25;4834937;29;103994;-71
2023/03/10 04:22:52;;;;;;;;;0.50;0.00;;;;;4.98;96.78;96502.75;4841275;29;102411;-71
2023/03/10 04:25:19;;;;;;;;;1.50;1.00;;;;;5.29;97.28;96557.09;4841110;29;102145;-73
2023/03/10 04:27:46;;;;;;;;;1.50;1.00;;;;;5.19;97.52;96540.69;4843956;29;106289;-73
2023/03/10 04:30:14;;;;;;;;;0.00;0.00;;;;;5.26;97.73;96543.34;4841318;29;108617;-71
2023/03/10 04:32:41;;;;;;;;;2.50;1.00;;;;;5.21;97.72;96551.19;4840257;29;102335;-72
2023/03/10 04:35:11;;;;;;;;;0.75;0.75;;;;;5.19;97.44;96551.41;4841626;29;102197;-73
2023/03/10 04:37:39;;;;;;;;;0.00;0.00;;;;;5.13;97.64;96541.56;4843475;29;102578;-71
2023/03/10 04:40:08;;;;;;;;;1.75;0.25;;;;;5.10;98.08;96544.66;4838375;29;104239;-72
2023/03/10 04:42:35;;;;;;;;;0.50;0.00;;;;;5.04;97.66;96537.53;4840841;29;102045;-72
2023/03/10 04:45:02;;;;;;;;;0.00;0.00;;;;;5.04;97.67;96539.38;4840338;29;102151;-71
2023/03/10 04:47:29;;;;;;;;;1.00;0.50;;;;;4.97;97.93;96534.06;4841368;28;102134;-72
2023/03/10 04:49:56;;;;;;;;;1.00;1.00;;;;;4.94;97.87;96538.00;4828377;29;104040;-71
2023/03/10 04:52:23;;;;;;;;;0.00;0.00;;;;;4.85;98.17;96525.91;4839888;29;101958;-72
2023/03/10 04:54:50;;;;;;;;;0.00;0.00;;;;;4.84;98.43;96528.78;4839735;29;101995;-71
2023/03/10 04:57:17;;;;;;;;;1.75;1.00;;;;;4.79;98.77;96515.22;4841438;29;102359;-72
2023/03/10 04:59:44;;;;;;;;;1.00;1.00;;;;;4.74;98.77;96515.03;4842670;29;103997;-72
2023/03/10 05:02:11;;;;;;;;;1.00;1.00;;;;;4.68;98.79;96514.06;4838384;29;102230;-72
2023/03/10 05:04:39;;;;;;;;;0.25;0.00;;;;;4.68;98.79;96511.41;4839802;28;101922;-72
2023/03/10 05:07:05;;;;;;;;;1.75;1.00;;;;;4.67;99.61;96527.66;4840774;28;101988;-72
2023/03/10 05:09:36;;;;;;;;;1.25;1.00;;;;;4.60;99.87;96516.97;4839976;29;104088;-72
2023/03/10 05:12:04;;;;;;;;;2.00;2.00;;;;;4.54;99.61;96517.03;4839849;29;101991;-73
2023/03/10 05:14:31;;;;;;;;;4.00;3.00;;;;;4.38;100.00;96508.44;4838677;29;102192;-72
2023/03/10 05:16:58;;;;;;;;;5.50;3.50;;;;;4.35;100.00;96516.09;4839088;29;103051;-72
2023/03/10 05:19:25;;;;;;;;;2.00;2.00;;;;;4.38;100.00;96502.28;4841813;29;104154;-73
2023/03/10 05:21:52;;;;;;;;;2.00;1.75;;;;;4.37;100.00;96501.44;4841501;28;102095;-73
2023/03/10 05:24:19;;;;;;;;;2.00;2.00;;;;;4.41;100.00;96504.53;4844084;29;101820;-73
2023/03/10 05:26:45;;;;;;;;;1.50;1.50;;;;;4.40;100.00;96485.00;4845068;28;101813;-72
2023/03/10 05:29:12;;;;;;;;;2.00;1.00;;;;;4.42;100.00;96482.91;4842079;29;111059;-73
2023/03/10 05:31:40;;;;;;;;;2.50;1.75;;;;;4.40;100.00;96471.63;4842559;29;102045;-73
2023/03/10 05:34:07;;;;;;;;;1.50;0.75;;;;;4.40;100.00;96463.59;4844047;29;102309;-73
2023/03/10 05:36:37;;;;;;;;;11.50;8.50;;;;;4.47;100.00;96475.06;4811845;28;101957;-73
2023/03/10 05:39:05;;;;;;;;;10.50;9.75;;;;;4.47;100.00;96475.06;4833737;29;103996;-73
2023/03/10 05:41:32;;;;;;;;;12.00;11.25;;;;;4.48;100.00;96471.34;4843301;29;102224;-73
2023/03/10 05:43:59;;;;;;;;;10.00;8.00;;;;;4.53;100.00;96478.75;4842899;29;101978;-73
2023/03/10 05:46:27;;;;;;;;;7.25;7.25;;;;;4.58;100.00;96462.03;4842796;29;102292;-72
2023/03/10 05:48:55;;;;;;;;;6.75;6.00;;;;;4.68;100.00;96459.72;4843345;29;104360;-73
2023/03/10 05:51:23;;;;;;;;;7.00;7.00;;;;;4.76;100.00;96459.44;4841140;29;102092;-73
2023/03/10 05:53:50;;;;;;;;;3.00;3.00;;;;;4.81;100.00;96449.72;4841050;29;102191;-72
2023/03/10 05:56:18;;;;;;;;;5.00;4.25;;;;;4.91;100.00;96441.19;4845710;29;102828;-73
2023/03/10 05:58:46;;;;;;;;;5.00;4.00;;;;;4.99;100.00;96434.75;4844938;29;104012;-72
2023/03/10 06:01:13;;;;;;;;;4.00;4.00;;;;;5.12;100.00;96438.16;4843319;29;102279;-72
2023/03/10 06:03:40;;;;;;;;;2.00;1.75;;;;;5.22;99.63;96430.41;4843933;28;102222;-73
2023/03/10 06:06:08;;;;;;;;;3.00;2.00;;;;;5.35;99.43;96424.94;4844212;29;102051;-73
2023/03/10 06:08:35;;;;;;;;;2.75;2.50;;;;;5.56;98.93;96431.72;4842272;29;104049;-73
2023/03/10 06:11:03;;;;;;;;;2.00;2.00;;;;;5.74;98.63;96436.28;4842131;29;102030;-73
2023/03/10 06:13:31;;;;;;;;;3.00;2.00;;;;;5.91;97.54;96445.38;4839698;29;102137;-72
2023/03/10 06:16:01;;;;;;;;;1.50;1.50;;;;;6.05;95.79;96443.34;4844145;29;102278;-72
2023/03/10 06:18:29;;;;;;;;;2.25;2.00;;;;;6.26;95.72;96442.88;4842662;29;104384;-72
2023/03/10 06:20:56;;;;;;;;;2.75;2.00;;;;;6.45;95.03;96424.88;4841817;29;101911;-72
2023/03/10 06:23:24;;;;;;;;;2.00;1.00;;;;;6.63;94.26;96428.31;4843249;29;102324;-72
2023/03/10 06:26:05;;;;;;;;;3.00;3.00;;;;;6.80;93.03;96425.78;4841426;29;102130;-72
2023/03/10 06:28:35;;;;;;;;;6.00;3.00;;;;;6.98;90.43;96417.63;4842439;29;104065;-72
2023/03/10 06:31:06;;;;;;;;;2.75;2.75;;;;;7.18;89.12;96426.19;4842608;29;102535;-72
2023/03/10 06:33:33;;;;;;;;;6.00;3.00;;;;;7.30;88.48;96418.13;4843179;29;102356;-72
2023/03/10 06:36:01;;;;;;;;;3.25;3.00;;;;;7.42;87.35;96412.75;4841986;29;102441;-73
2023/03/10 06:38:29;;;;;;;;;7.00;3.00;;;;;7.49;86.41;96416.94;4841304;29;104241;-72
2023/03/10 06:40:57;;;;;;;;;4.50;3.00;;;;;7.56;85.78;96408.78;4842704;29;102020;-73
2023/03/10 06:43:24;;;;;;;;;4.00;2.25;;;;;7.60;85.17;96404.56;4841672;29;102512;-72
2023/03/10 06:45:51;;;;;;;;;3.00;2.50;;;;;7.63;84.90;96401.38;4842654;29;102185;-72
2023/03/10 06:48:18;;;;;;;;;2.50;2.50;;;;;7.74;84.80;96403.25;4842951;29;104141;-72
2023/03/10 06:50:47;;;;;;;;;3.00;3.00;;;;;7.84;84.56;96403.44;4841787;29;101982;-73
2023/03/10 06:53:19;;;;;;;;;3.25;2.75;;;;;8.00;84.61;96397.34;4840774;29;102166;-72
2023/03/10 06:56:08;;;;;;;;;2.00;2.00;;;;;8.23;84.45;96395.63;4836441;29;102038;-73
2023/03/10 06:58:36;;;;;;;;;4.25;3.00;;;;;8.40;81.77;96383.88;4821784;28;108667;-73
2023/03/10 07:01:04;;;;;;;;;2.75;2.00;;;;;8.59;81.97;96373.72;4823980;29;102937;-72
2023/03/10 07:03:33;;;;;;;;;3.00;3.00;;;;;8.78;79.67;96377.78;4821028;28;101925;-73
2023/03/10 07:06:00;;;;;;;;;2.75;2.50;;;;;8.96;78.76;96369.47;4823570;29;102097;-73
2023/03/10 07:08:28;;;;;;;;;1.75;1.00;;;;;9.15;77.78;96366.50;4823315;28;104197;-72
2023/03/10 07:10:55;;;;;;;;;3.50;3.00;;;;;9.38;76.38;96369.03;4823311;29;102060;-73
2023/03/10 07:13:22;;;;;;;;;3.00;3.00;;;;;9.58;75.54;96365.81;4822894;29;101948;-72
2023/03/10 07:15:49;;;;;;;;;3.00;2.00;;;;;9.80;74.90;96363.94;4824912;28;102369;-72
2023/03/10 07:18:16;;;;;;;;;2.75;2.25;;;;;10.03;74.33;96362.88;4825151;29;104014;-73
2023/03/10 07:20:44;;;;;;;;;6.00;5.00;;;;;10.11;71.50;96343.50;4821829;29;102876;-72
2023/03/10 07:23:12;;;;;;;;;4.25;4.00;;;;;10.22;69.80;96356.09;4824160;29;102097;-72
2023/03/10 07:25:39;;;;;;;;;7.00;6.25;;;;;10.35;72.14;96349.47;4824840;29;102184;-72
2023/03/10 07:28:06;;;;;;;;;6.00;4.25;;;;;10.43;71.60;96352.53;4823084;28;104099;-72
2023/03/10 07:30:34;;;;;;;;;5.00;4.00;;;;;10.48;70.77;96358.00;4821485;29;101904;-72
2023/03/10 07:33:01;;;;;;;;;4.00;3.50;;;;;10.48;70.42;96333.69;4821959;29;102056;-72
2023/03/10 07:35:28;;;;;;;;;5.00;5.00;;;;;10.59;70.53;96351.59;4821446;29;102278;-73
2023/03/10 07:37:55;;;;;;;;;5.00;4.00;;;;;10.58;69.51;96344.56;4817020;29;104082;-72
2023/03/10 07:40:23;;;;;;;;;5.50;3.00;;;;;10.60;69.57;96347.84;4820113;28;102326;-72
2023/03/10 07:42:53;;;;;;;;;4.75;4.00;;;;;10.77;68.80;96346.88;4818065;29;101932;-72
2023/03/10 07:45:24;;;;;;;;;5.00;3.50;;;;;10.94;71.53;96353.78;4823063;29;102026;-72
2023/03/10 07:47:53;;;;;;;;;5.50;5.00;;;;;11.13;70.14;96344.22;4823514;28;104076;-72
2023/03/10 07:50:20;;;;;;;;;6.00;4.25;;;;;11.23;68.82;96345.38;4821329;29;102427;-72
2023/03/10 07:52:48;;;;;;;;;9.50;8.25;;;;;11.34;67.73;96347.88;4823909;29;102832;-72
2023/03/10 07:55:15;;;;;;;;;6.00;5.25;;;;;11.42;68.22;96336.56;4824007;29;102075;-73
2023/03/10 07:57:42;;;;;;;;;5.75;5.50;;;;;11.60;66.69;96341.56;4842015;29;108693;-72
2023/03/10 08:00:10;;;;;;;;;8.25;6.00;;;;;11.82;66.70;96337.88;4841956;29;102219;-72
2023/03/10 08:02:37;;;;;;;;;7.00;6.00;;;;;11.73;64.37;96302.38;4840270;29;102374;-72
2023/03/10 08:05:05;;;;;;;;;6.25;6.00;;;;;11.79;64.49;96292.41;4840557;29;102359;-72
2023/03/10 08:07:33;;;;;;;;;6.75;5.50;;;;;12.09;63.42;96335.81;4815238;29;104203;-72
2023/03/10 08:10:00;;;;;;;;;6.75;6.75;;;;;12.02;63.13;96310.91;4839590;29;102454;-72
2023/03/10 08:12:27;;;;;;;;;4.25;4.25;;;;;12.15;63.49;96323.13;4841061;28;102138;-72
2023/03/10 08:14:54;;;;;;;;;4.50;3.25;;;;;12.13;62.19;96320.66;4843009;29;102130;-73
2023/03/10 08:17:22;;;;;;;;;3.50;3.00;;;;;12.19;63.43;96322.31;4840951;29;104081;-72
2023/03/10 08:19:49;;;;;;;;;3.50;3.00;;;;;12.22;61.42;96327.19;4840642;29;102467;-73
2023/03/10 08:22:16;;;;;;;;;3.00;3.00;;;;;12.26;61.43;96328.28;4837739;29;103073;-72
2023/03/10 08:24:43;;;;;;;;;5.50;4.00;;;;;12.22;61.02;96321.78;4841401;29;102331;-72
2023/03/10 08:27:10;;;;;;;;;3.25;3.00;;;;;12.23;63.56;96319.88;4841101;29;104070;-71
2023/03/10 08:29:37;;;;;;;;;1.25;1.00;;;;;12.32;62.04;96315.56;4841130;29;101957;-72
2023/03/10 08:32:04;;;;;;;;;3.00;2.75;;;;;12.37;59.95;96313.69;4841370;29;102444;-72
2023/03/10 08:34:33;;;;;;;;;3.00;2.75;;;;;12.41;60.94;96300.41;4825145;29;102499;-72
2023/03/10 08:37:01;;;;;;;;;3.00;2.00;;;;;12.55;60.42;96301.53;4841269;29;104037;-72
2023/03/10 08:39:28;;;;;;;;;2.00;2.00;;;;;12.76;59.56;96321.31;4841440;29;102500;-72
2023/03/10 08:41:55;;;;;;;;;2.00;2.00;;;;;12.97;61.96;96312.09;4838643;29;102348;-72
2023/03/10 08:44:22;;;;;;;;;3.25;2.25;;;;;13.19;60.11;96309.94;4842368;29;102360;-72
2023/03/10 08:46:49;;;;;;;;;3.00;2.00;;;;;13.45;58.37;96307.19;4839387;29;104087;-71
2023/03/10 08:49:19;;;;;;;;;1.75;1.75;;;;;13.69;57.15;96313.63;4843951;29;102220;-72
2023/03/10 08:51:47;;;;;;;;;1.50;1.25;;;;;13.70;56.06;96318.78;4839850;29;102053;-71
2023/03/10 08:54:18;;;;;;;;;2.00;2.00;;;;;13.75;55.77;96316.06;4840348;28;101999;-71
2023/03/10 08:56:45;;;;;;;;;1.00;1.00;;;;;13.73;58.28;96309.28;4836726;29;108573;-71
2023/03/10 08:59:12;;;;;;;;;2.00;1.25;;;;;13.71;56.89;96311.47;4840944;29;102412;-72
2023/03/10 09:01:39;;;;;;;;;1.00;1.00;;;;;13.74;57.06;96319.84;4840301;29;102002;-71
2023/03/10 09:04:09;;;;;;;;;1.00;1.00;;;;;13.82;58.17;96313.84;4840357;29;102294;-72
2023/03/10 09:06:37;;;;;;;;;1.00;1.00;;;;;13.94;57.33;96310.00;4839481;29;104050;-71
2023/03/10 09:09:06;;;;;;;;;1.00;1.00;;;;;14.00;57.93;96303.47;4839163;29;102163;-72
2023/03/10 09:11:35;;;;;;;;;1.00;0.25;;;;;14.07;56.52;96299.34;4841207;29;102612;-72
2023/03/10 09:14:05;;;;;;;;;2.25;1.75;;;;;14.10;55.26;96292.53;4841318;29;102141;-72
2023/03/10 09:16:32;;;;;;;;;3.00;1.00;;;;;14.16;56.29;96303.13;4838605;29;104666;-72
2023/03/10 09:19:00;;;;;;;;;1.00;1.00;;;;;14.27;55.27;96303.88;4840686;29;102083;-72
2023/03/10 09:21:29;;;;;;;;;0.00;0.00;;;;;14.39;55.42;96301.66;4838732;28;102276;-72
2023/03/10 09:24:00;;;;;;;;;1.00;0.00;;;;;14.50;55.72;96303.22;4841732;29;102523;-72
2023/03/10 09:26:27;;;;;;;;;0.00;0.00;;;;;14.59;53.09;96295.28;4840468;29;104040;-71
2023/03/10 09:28:54;;;;;;;;;1.00;0.00;;;;;14.69;54.71;96297.91;4839628;29;102207;-72
2023/03/10 09:31:27;;;;;;;;;0.00;0.00;;;;;14.83;54.17;96292.63;4839016;29;103929;-72
2023/03/10 09:33:54;;;;;;;;;0.00;0.00;;;;;14.86;54.21;96290.16;4842122;29;102169;-72
2023/03/10 09:36:21;;;;;;;;;0.67;0.67;;;;;14.95;54.08;96290.38;4839543;29;104164;-73
2023/03/10 09:38:48;;;;;;;;;0.33;0.00;;;;;15.10;54.14;96282.88;4840895;29;102357;-71
2023/03/10 09:41:25;;;;;;;;;2.00;1.67;;;;;15.09;53.09;96289.41;4840837;29;102367;-73
2023/03/10 09:44:07;;;;;;;;;2.00;1.33;;;;;14.85;53.25;96283.13;4837675;29;102167;-71
2023/03/10 09:46:49;;;;;;;;;1.00;1.00;;;;;15.02;55.96;96285.41;4842379;28;104092;-72
2023/03/10 09:49:49;;;;;;;;;2.00;1.00;;;;;15.24;55.02;96283.03;4836544;29;101830;-71
2023/03/10 09:52:41;;;;;;;;;4.00;3.00;;;;;15.33;51.61;96278.59;4835022;29;102297;-72
2023/03/10 09:55:19;;;;;;;;;2.33;2.33;;;;;15.58;53.10;96282.97;4838920;29;101984;-73
2023/03/10 09:57:49;;;;;;;;;2.67;2.00;;;;;15.64;52.77;96279.09;4818231;29;108761;-72
2023/03/10 10:00:30;;;;;;;;;2.33;2.00;;;;;15.56;51.30;96283.28;4835305;28;102004;-72
2023/03/10 10:03:04;;;;;;;;;3.00;2.00;;;;;15.54;51.20;96281.94;4819337;29;102477;-72
2023/03/10 10:05:36;;;;;;;;;2.67;2.00;;;;;15.49;51.81;96280.03;4824574;29;102255;-72
2023/03/10 10:08:17;;;;;;;;;2.00;2.00;;;;;15.51;52.15;96277.06;4823757;29;104005;-72
2023/03/10 10:10:48;;;;;;;;;2.67;2.00;;;;;15.50;52.95;96269.97;4820456;28;101865;-70
2023/03/10 10:13:16;;;;;;;;;2.00;1.00;;;;;15.53;52.85;96266.72;4823293;29;102173;-71
2023/03/10 10:15:50;;;;;;;;;3.33;3.00;;;;;15.39;51.47;96272.00;4827050;29;102028;-71
2023/03/10 10:18:45;;;;;;;;;3.00;2.33;;;;;15.28;51.57;96261.47;4824019;29;108456;-72
2023/03/10 10:21:18;;;;;;;;;4.00;4.00;;;;;15.29;52.38;96258.47;4822127;28;102229;-71
2023/03/10 10:23:50;;;;;;;;;1.67;1.67;;;;;15.44;52.49;96258.31;4821053;29;102461;-72
2023/03/10 10:26:27;;;;;;;;;3.00;1.67;;;;;15.69;52.79;96249.06;4822082;28;102093;-72
2023/03/10 10:29:00;;;;;;;;;2.00;2.00;;;;;15.90;51.41;96265.97;4822881;29;108704;-71
2023/03/10 10:31:29;;;;;;;;;5.00;3.33;;;;;16.11;54.07;96256.44;4823505;28;102042;-72
2023/03/10 10:34:06;;;;;;;;;4.00;3.00;;;;;16.27;51.45;96259.75;4821574;28;102098;-71
2023/03/10 10:36:37;;;;;;;;;2.33;2.33;;;;;16.37;50.74;96259.63;4824474;29;102062;-70
2023/03/10 10:39:24;;;;;;;;;1.00;1.00;;;;;16.41;49.78;96257.91;4819723;29;104358;-72
2023/03/10 10:41:54;;;;;;;;;4.00;3.33;;;;;16.34;51.46;96258.31;4813648;29;102165;-72
2023/03/10 10:44:20;;;;;;;;;3.33;2.00;;;;;16.34;50.63;96266.50;4819739;29;102903;-72
2023/03/10 10:46:53;;;;;;;;;2.00;2.00;;;;;16.14;50.67;96265.94;4825541;29;101888;-72
2023/03/10 10:49:30;;;;;;;;;4.67;3.00;;;;;15.91;50.66;96262.97;4816358;29;109822;-72
2023/03/10 10:51:57;;;;;;;;;3.00;2.00;;;;;15.77;52.25;96251.16;4818226;29;102152;-71
2023/03/10 10:54:29;;;;;;;;;2.00;2.00;;;;;15.67;52.20;96251.25;4823215;29;102160;-72
2023/03/10 10:56:59;;;;;;;;;4.00;4.00;;;;;15.72;52.65;96243.03;4837764;29;102230;-72
2023/03/10 10:59:35;;;;;;;;;4.00;4.00;;;;;15.86;53.17;96238.50;4841357;29;104009;-72
2023/03/10 11:02:21;;;;;;;;;4.00;4.00;;;;;16.09;53.41;96236.84;4842003;29;102114;-72
2023/03/10 11:04:48;;;;;;;;;2.00;2.00;;;;;16.27;52.75;96210.69;4837913;29;102086;-73
2023/03/10 11:07:18;;;;;;;;;2.67;1.67;;;;;16.59;54.02;96229.84;4844287;29;101972;-72
2023/03/10 11:09:46;;;;;;;;;4.33;3.00;;;;;16.57;51.78;96220.31;4838773;29;108638;-72
2023/03/10 11:12:56;;;;;;;;;2.00;2.00;;;;;16.73;50.78;96222.53;4842103;29;102153;-71
2023/03/10 11:15:33;;;;;;;;;3.00;3.00;;;;;16.98;50.67;96212.28;4838095;29;104576;-71
2023/03/10 11:18:03;;;;;;;;;4.67;4.00;;;;;17.03;51.55;96202.06;4840129;29;102112;-72
2023/03/10 11:20:55;;;;;;;;;3.00;3.00;;;;;17.16;50.83;96205.94;4841852;29;103996;-72
2023/03/10 11:23:53;;;;;;;;;5.00;3.00;;;;;17.42;51.57;96194.22;4833613;28;102071;-72
2023/03/10 11:26:47;;;;;;;;;5.00;4.00;;;;;17.65;50.43;96192.44;4836457;28;102300;-72
2023/03/10 11:29:39;;;;;;;;;6.00;3.00;;;;;17.63;48.31;96186.47;4843355;29;102125;-72
2023/03/10 11:32:29;;;;;;;;;2.00;2.00;;;;;17.58;48.47;96180.25;4835564;29;108723;-72
2023/03/10 11:34:57;;;;;;;;;4.00;3.33;;;;;17.41;48.88;96180.88;4839428;29;102018;-72
2023/03/10 11:37:35;;;;;;;;;3.33;3.33;;;;;17.30;47.96;96185.72;4841241;29;103299;-72
2023/03/10 11:40:23;;;;;;;;;3.00;3.00;;;;;17.42;49.58;96174.31;4827449;29;102121;-72